EPWAEPGD

Guest
Details From EPWA - WARSZAWA Okecie
To EPGD - LECH WALESA
Flight Number -
Tags decoded
Created
Modified
Stats Distance 160 nm / 297 km
Max Altitude 0 ft / 0 m
Waypoints 3
Social Downloads 1
Likes 0
Share VATSIM

Download

Looking for another format? Having issues loading an existing format? Contact us
Advertisement - Login to hide

Notes

Requested: EPWA OLILA RILAB OSLOG EPGD Unmatched points: OSLOG

Route

EPWA OLILA EPGD

ID Type Via Altitude Latitude Longitude Leg Dist Tot Dist Heading (true) Name
O EPWA APT - 0 ft / 0 m 52.16509˚ 20.96692˚ - 0 nm - WARSZAWA Okecie
OLILA FIX - 0 ft / 0 m 52.70444˚ 20.32833˚ 39 nm 39 nm 324° / 324° -
O EPGD APT - 0 ft / 0 m 54.37617˚ 18.47188˚ 120 nm 160 nm 327° / 326° LECH WALESA

Altitude Profile

Advertisement - Login to hide

EPWA

Details ICAO EPWA (WAW)
Name WARSZAWA Okecie
Region Poland
Timezone Europe/Warsaw (UTC+1.0)
Stats Elevation 328 ft / 100 m (AMSL)
Location 52.165091° 20.966923°
Runways 2
Magnetic Variation 5.814° E

METAR

EPWA 180330Z 27009KT 240V310 9000 -SN BKN006 01/M00 Q1001 R33/2///95 NOSIG

Decode

TAF

TAF EPWA 172330Z 1800/1824 26008KT 9999 BKN020 PROB40 TEMPO 1800/1808 3000 -SN BR BKN006 BECMG 1809/1811 17010KT BECMG 1816/1818 3000 RASN BKN005 OVC013 PROB40 TEMPO 1816/1820 0800 SN SNRA OVC003

Decode

Departure Runways

ID Width Length Bearing (true) Bearing (mag) Surface Threshold Offset Overrun Length
11 164 ft / 50 m 9,163 ft / 2,793 m 114.64° 108.83° Asphalt 0 ft / 0 m 476 ft / 145 m
15 197 ft / 60 m 12,112 ft / 3,692 m 151.85° 146.04° Asphalt 0 ft / 0 m 0 ft / 0 m
29 164 ft / 50 m 9,163 ft / 2,793 m 294.67° 288.86° Asphalt 1,608 ft / 490 m 0 ft / 0 m
33 197 ft / 60 m 12,112 ft / 3,692 m 331.87° 326.06° Asphalt 0 ft / 0 m 0 ft / 0 m

EPGD

Details ICAO EPGD (GDN)
Name LECH WALESA
Region Poland
Timezone Europe/Warsaw (UTC+1.0)
Stats Elevation 489 ft / 149 m (AMSL)
Location 54.376167° 18.471884°
Runways 1
Magnetic Variation 5.463° E

METAR

EPGD 180330Z 24007KT 9999 FEW008 BKN013 00/M01 Q0996 R11/550195

Decode

TAF

TAF TAF EPGD 172330Z 1800/1824 25010KT 9999 BKN010 PROB40 TEMPO 1800/1806 3000 -SHSN -SHSNRA BKN004 BKN010TCU BECMG 1809/1811 16010KT BECMG 1815/1817 3000 -SN -SNRA BR BKN005 OVC010 PROB40 1816/1820 0800 SN SNRA BKN002 OVC007

Decode

Destination Runways

ID Width Length Bearing (true) Bearing (mag) Surface Threshold Offset Overrun Length
11 148 ft / 45 m 9,158 ft / 2,791 m 112.96° 107.50° Asphalt 0 ft / 0 m 0 ft / 0 m
29 148 ft / 45 m 9,158 ft / 2,791 m 293.00° 287.54° Asphalt 0 ft / 0 m 0 ft / 0 m

Approach Navaids

Runway Type Ident Frequency Range Bearing (true) Bearing (mag) Slope Elevation
29 Localiser IGDA 110.30 MHz 18 nm / 33 km 292.96° 287.50° - 489 ft / 149 m (AMSL)
29 Glidescope IGDA 110.30 MHz 10 nm / 19 km 292.98° 287.52° 2.90° 489 ft / 149 m (AMSL)
29 DME IGDA 110.30 MHz 18 nm / 33 km - - - 492 ft / 150 m (AMSL)

Popular Alternatives